Time;durP1;ratioP1;P1;durP2;ratioP2;P2;SDS_P1;SDS_P2;PMS_P1;PMS_P2;Temp;Humidity;BMP_temperature;BMP_pressure;BME280_temperature;BME280_humidity;BME280_pressure;Samples;Min_cycle;Max_cycle;Signal;HPM_P1;HPM_P2
2022/04/13 00:01:52;;;;;;;15.05;8.05;;;;;;;9.36;81.50;100474.28;5214915;28;20055;-77
2022/04/13 00:04:23;;;;;;;15.15;7.93;;;;;;;9.30;82.14;100474.47;5211077;28;20017;-77
2022/04/13 00:06:53;;;;;;;13.80;8.13;;;;;;;9.37;82.31;100475.13;5211050;28;20029;-78
2022/04/13 00:09:23;;;;;;;15.68;8.63;;;;;;;9.37;82.16;100472.50;5213767;28;20031;-78
2022/04/13 00:11:54;;;;;;;15.95;7.95;;;;;;;9.34;82.67;100485.66;5211812;28;20037;-78
2022/04/13 00:14:24;;;;;;;15.90;8.40;;;;;;;9.32;82.62;100474.44;5203522;28;20036;-77
2022/04/13 00:16:55;;;;;;;18.58;8.93;;;;;;;9.29;82.34;100482.34;5212017;28;20053;-77
2022/04/13 00:19:26;;;;;;;18.42;8.90;;;;;;;9.26;82.97;100474.59;5211659;28;20387;-78
2022/04/13 00:21:56;;;;;;;15.32;8.43;;;;;;;9.20;83.08;100467.00;5195484;28;20029;-78
2022/04/13 00:24:26;;;;;;;17.00;9.15;;;;;;;9.20;83.67;100474.81;5210999;28;20356;-77
2022/04/13 00:26:57;;;;;;;13.50;8.35;;;;;;;9.17;83.76;100472.31;5213923;28;20021;-78
2022/04/13 00:29:30;;;;;;;13.57;8.32;;;;;;;9.16;83.77;100468.84;5207804;28;20104;-78
2022/04/13 00:32:03;;;;;;;16.35;8.80;;;;;;;9.06;84.93;100474.38;5212282;28;20100;-78
2022/04/13 00:34:34;;;;;;;15.57;9.07;;;;;;;8.94;84.47;100473.91;5213938;28;20075;-78
2022/04/13 00:37:04;;;;;;;15.23;9.02;;;;;;;8.94;85.56;100474.78;5214058;28;20041;-77
2022/04/13 00:39:34;;;;;;;16.65;9.50;;;;;;;8.90;85.45;100467.09;5212981;28;20025;-78
2022/04/13 00:42:06;;;;;;;17.05;8.65;;;;;;;8.85;85.62;100480.25;5210828;28;20071;-78
2022/04/13 00:44:37;;;;;;;18.52;8.98;;;;;;;8.82;86.44;100474.28;5201954;28;20037;-77
2022/04/13 00:47:08;;;;;;;16.23;8.85;;;;;;;8.76;86.50;100477.06;5212974;28;20026;-77
2022/04/13 00:49:38;;;;;;;18.05;9.38;;;;;;;8.66;86.75;100473.03;5212399;28;20433;-77
2022/04/13 00:52:11;;;;;;;17.75;9.32;;;;;;;8.61;86.79;100486.22;5213383;28;20502;-77
2022/04/13 00:54:45;;;;;;;15.77;9.25;;;;;;;8.66;86.50;100478.22;5194098;28;20029;-77
2022/04/13 00:57:18;;;;;;;19.38;9.75;;;;;;;8.61;87.09;100470.56;5214460;28;20205;-77
2022/04/13 00:59:53;;;;;;;16.83;9.02;;;;;;;8.71;86.68;100469.38;5216401;28;20048;-77
2022/04/13 01:02:25;;;;;;;17.58;9.40;;;;;;;8.67;86.76;100470.38;5206894;28;20108;-78
2022/04/13 01:05:01;;;;;;;19.30;9.15;;;;;;;8.67;86.62;100474.72;5214062;28;20029;-77
2022/04/13 01:07:33;;;;;;;17.85;9.25;;;;;;;8.57;87.55;100474.16;5212272;28;20091;-77
2022/04/13 01:10:06;;;;;;;16.00;8.68;;;;;;;8.57;87.86;100476.75;5211347;28;20051;-78
2022/04/13 01:12:36;;;;;;;16.15;9.25;;;;;;;8.52;88.37;100481.25;5208616;28;20021;-77
2022/04/13 01:15:07;;;;;;;19.35;9.68;;;;;;;8.50;88.32;100477.84;5204335;28;20564;-78
2022/04/13 01:17:39;;;;;;;17.67;9.75;;;;;;;8.49;88.86;100476.13;5211807;28;20394;-77
2022/04/13 01:20:11;;;;;;;16.35;9.43;;;;;;;8.46;88.93;100476.22;5212439;28;20036;-77
2022/04/13 01:22:42;;;;;;;17.52;9.75;;;;;;;8.41;88.95;100478.09;5210966;28;20025;-77
2022/04/13 01:25:12;;;;;;;18.23;10.07;;;;;;;8.37;89.20;100475.63;5212925;28;20486;-78
2022/04/13 01:27:42;;;;;;;17.00;10.02;;;;;;;8.23;89.59;100480.38;5212327;28;20032;-77
2022/04/13 01:30:14;;;;;;;17.55;9.93;;;;;;;8.29;89.58;100483.66;5211277;28;20033;-78
2022/04/13 01:32:44;;;;;;;16.23;9.25;;;;;;;8.37;90.14;100480.84;5212922;28;20035;-78
2022/04/13 01:35:14;;;;;;;19.13;10.10;;;;;;;8.24;90.15;100469.88;5210234;28;20405;-77
2022/04/13 01:37:44;;;;;;;17.98;9.15;;;;;;;8.29;89.24;100478.44;5212596;28;20025;-77
2022/04/13 01:40:15;;;;;;;18.55;9.80;;;;;;;8.34;89.87;100476.56;5210190;28;20071;-77
2022/04/13 01:42:47;;;;;;;18.42;10.02;;;;;;;8.35;89.64;100482.63;5207710;28;20057;-78
2022/04/13 01:45:20;;;;;;;16.58;8.98;;;;;;;8.36;89.08;100482.56;5204573;28;20031;-78
2022/04/13 01:47:51;;;;;;;18.70;9.38;;;;;;;8.40;88.71;100485.97;5204697;28;20414;-77
2022/04/13 01:50:22;;;;;;;15.82;9.68;;;;;;;8.40;88.92;100480.75;5212549;28;20108;-78
2022/04/13 01:52:52;;;;;;;16.60;9.50;;;;;;;8.40;88.42;100481.59;5211043;28;20021;-77
2022/04/13 01:55:22;;;;;;;16.67;9.48;;;;;;;8.29;88.91;100478.44;5214320;28;20378;-77
2022/04/13 01:57:53;;;;;;;17.58;9.85;;;;;;;8.41;88.75;100483.28;5213376;28;20013;-77
2022/04/13 02:00:23;;;;;;;17.55;9.90;;;;;;;8.40;89.11;100491.16;5212490;28;20052;-77
2022/04/13 02:02:53;;;;;;;16.70;9.68;;;;;;;8.25;89.90;100492.41;5214495;28;20420;-77
2022/04/13 02:05:23;;;;;;;17.27;9.53;;;;;;;8.30;89.43;100495.78;5211726;28;20052;-77
2022/04/13 02:07:54;;;;;;;16.88;9.27;;;;;;;8.19;89.98;100492.59;5213779;28;20637;-77
2022/04/13 02:10:24;;;;;;;19.88;10.48;;;;;;;8.14;90.14;100485.78;5211137;28;20030;-77
2022/04/13 02:12:54;;;;;;;20.80;9.57;;;;;;;8.09;90.13;100491.13;5208224;28;20025;-78
2022/04/13 02:15:25;;;;;;;16.48;9.68;;;;;;;8.06;90.48;100490.34;5206106;28;20553;-77
2022/04/13 02:17:55;;;;;;;17.20;10.02;;;;;;;8.11;90.47;100489.34;5211423;28;20017;-77
2022/04/13 02:20:25;;;;;;;18.50;10.35;;;;;;;8.15;90.50;100488.34;5213014;28;20047;-77
2022/04/13 02:22:55;;;;;;;19.55;10.10;;;;;;;8.12;90.65;100493.66;5217409;28;20027;-77
2022/04/13 02:25:26;;;;;;;18.05;9.70;;;;;;;8.24;90.11;100484.69;5215841;28;20112;-77
2022/04/13 02:27:56;;;;;;;19.20;10.35;;;;;;;8.02;90.70;100483.53;5218646;28;20045;-77
2022/04/13 02:30:26;;;;;;;17.50;10.05;;;;;;;8.08;90.79;100485.94;5215691;28;20029;-78
2022/04/13 02:32:57;;;;;;;23.70;10.02;;;;;;;8.13;90.11;100476.25;5216870;28;20031;-77
2022/04/13 02:35:27;;;;;;;17.35;10.43;;;;;;;8.07;91.10;100479.88;5215321;28;20112;-77
2022/04/13 02:37:58;;;;;;;19.25;10.15;;;;;;;8.15;90.28;100477.94;5216638;28;20069;-78
2022/04/13 02:40:29;;;;;;;16.45;9.93;;;;;;;8.10;90.58;100481.56;5215312;28;20029;-77
2022/04/13 02:43:00;;;;;;;19.30;9.88;;;;;;;8.17;90.68;100483.09;5210579;28;20407;-78
2022/04/13 02:45:30;;;;;;;19.63;11.10;;;;;;;8.11;90.81;100478.94;5210453;28;20300;-77
2022/04/13 02:48:00;;;;;;;17.27;10.13;;;;;;;8.08;91.22;100478.97;5214422;28;20048;-77
2022/04/13 02:50:30;;;;;;;23.25;10.45;;;;;;;8.07;90.51;100472.06;5216049;28;20367;-78
2022/04/13 02:53:01;;;;;;;18.17;10.00;;;;;;;8.03;90.70;100473.06;5214936;28;20091;-78
2022/04/13 02:55:31;;;;;;;22.75;10.57;;;;;;;7.98;91.31;100477.53;5215971;28;20031;-78
2022/04/13 02:58:02;;;;;;;19.25;9.75;;;;;;;7.95;91.75;100475.03;5217823;28;20439;-77
2022/04/13 03:00:32;;;;;;;20.75;10.70;;;;;;;8.09;90.43;100474.66;5215995;28;20094;-78
2022/04/13 03:03:02;;;;;;;20.42;10.07;;;;;;;7.96;91.20;100473.25;5215987;28;20060;-77
2022/04/13 03:05:33;;;;;;;18.38;10.63;;;;;;;7.93;91.60;100479.41;5215453;28;20372;-77
2022/04/13 03:08:05;;;;;;;18.10;10.82;;;;;;;8.00;90.30;100470.53;5215160;28;20545;-77
2022/04/13 03:10:35;;;;;;;19.08;11.15;;;;;;;7.92;90.78;100477.72;5216169;28;20047;-77
2022/04/13 03:13:06;;;;;;;18.40;10.02;;;;;;;7.93;91.30;100469.00;5209244;28;20093;-77
2022/04/13 03:15:36;;;;;;;18.65;9.88;;;;;;;7.95;91.41;100467.22;5209623;28;20025;-77
2022/04/13 03:18:07;;;;;;;21.65;10.35;;;;;;;7.83;92.11;100475.34;5216016;28;20033;-77
2022/04/13 03:20:37;;;;;;;21.52;10.88;;;;;;;7.74;92.97;100470.34;5197305;28;20025;-77
2022/04/13 03:23:07;;;;;;;18.45;10.75;;;;;;;7.89;92.04;100475.16;5215836;28;20037;-77
2022/04/13 03:25:37;;;;;;;21.80;10.73;;;;;;;7.70;93.09;100486.09;5214253;28;20474;-77
2022/04/13 03:28:08;;;;;;;20.67;10.32;;;;;;;7.69;92.43;100477.44;5217452;28;20041;-77
2022/04/13 03:30:38;;;;;;;21.77;11.02;;;;;;;7.75;92.30;100479.91;5216503;28;20063;-78
2022/04/13 03:33:08;;;;;;;18.90;10.68;;;;;;;7.62;92.95;100468.09;5213541;28;20030;-77
2022/04/13 03:35:39;;;;;;;18.92;10.25;;;;;;;7.68;92.29;100469.69;5215979;28;20033;-77
2022/04/13 03:38:09;;;;;;;18.55;9.98;;;;;;;7.81;91.81;100474.53;5196583;28;20064;-77
2022/04/13 03:40:39;;;;;;;20.30;10.73;;;;;;;7.82;91.85;100477.97;5215573;28;20024;-78
2022/04/13 03:43:10;;;;;;;18.90;10.32;;;;;;;7.71;92.70;100478.25;5208159;28;20275;-77
2022/04/13 03:45:40;;;;;;;20.30;10.37;;;;;;;7.67;92.44;100481.00;5209225;28;20025;-77
2022/04/13 03:48:10;;;;;;;20.20;11.07;;;;;;;7.75;92.47;100481.63;5215027;28;20498;-77
2022/04/13 03:50:40;;;;;;;18.67;10.77;;;;;;;7.69;92.58;100479.19;5214088;28;20048;-77
2022/04/13 03:53:11;;;;;;;21.27;10.60;;;;;;;7.60;93.53;100474.22;5215702;28;20024;-77
2022/04/13 03:55:41;;;;;;;21.17;11.00;;;;;;;7.54;93.22;100475.22;5214008;28;20498;-77
2022/04/13 03:58:11;;;;;;;19.85;10.70;;;;;;;7.60;92.91;100475.09;5215268;28;20278;-77
2022/04/13 04:00:41;;;;;;;20.80;11.40;;;;;;;7.62;92.96;100475.03;5214949;28;20429;-77
2022/04/13 04:03:12;;;;;;;19.88;11.13;;;;;;;7.53;94.66;100483.06;5213470;28;20076;-77
2022/04/13 04:05:42;;;;;;;21.10;10.38;;;;;;;7.47;94.48;100483.19;5215461;28;20027;-77
2022/04/13 04:08:12;;;;;;;18.33;10.10;;;;;;;7.46;94.11;100486.69;5209889;28;20021;-77
2022/04/13 04:10:42;;;;;;;21.23;11.35;;;;;;;7.47;93.85;100478.88;5211828;28;20024;-77
2022/04/13 04:13:13;;;;;;;22.47;11.43;;;;;;;7.59;93.81;100486.38;5208475;28;20176;-77
2022/04/13 04:15:43;;;;;;;20.07;10.80;;;;;;;7.73;92.19;100491.22;5209171;28;20282;-77
2022/04/13 04:18:15;;;;;;;18.77;10.95;;;;;;;7.69;92.77;100487.00;5212075;28;20276;-77
2022/04/13 04:20:45;;;;;;;21.00;10.90;;;;;;;7.54;93.03;100490.81;5210471;28;20024;-77
2022/04/13 04:23:15;;;;;;;19.75;11.20;;;;;;;7.53;93.82;100499.50;5213004;28;20020;-77
2022/04/13 04:25:46;;;;;;;19.70;10.95;;;;;;;7.55;93.26;100500.31;5211162;28;20078;-77
2022/04/13 04:28:16;;;;;;;19.83;11.15;;;;;;;7.50;93.14;100506.56;5191030;28;20044;-77
2022/04/13 04:30:46;;;;;;;20.10;11.45;;;;;;;7.36;94.37;100506.88;5210151;28;20541;-77
2022/04/13 04:33:16;;;;;;;18.25;10.25;;;;;;;7.26;95.08;100509.72;5212485;28;20474;-77
2022/04/13 04:35:51;;;;;;;18.67;10.50;;;;;;;7.54;92.95;100509.03;5213079;28;20028;-77
2022/04/13 04:38:21;;;;;;;18.00;10.73;;;;;;;7.41;93.46;100514.56;5209660;28;20088;-77
2022/04/13 04:40:52;;;;;;;22.75;11.80;;;;;;;7.40;93.68;100520.66;5214963;28;20163;-77
2022/04/13 04:43:22;;;;;;;20.48;11.00;;;;;;;7.51;93.05;100521.25;5206422;28;20021;-77
2022/04/13 04:45:52;;;;;;;18.47;10.13;;;;;;;7.68;91.81;100514.75;5207512;28;20475;-77
2022/04/13 04:48:23;;;;;;;21.20;11.48;;;;;;;7.59;91.68;100521.91;5215079;28;20812;-77
2022/04/13 04:50:53;;;;;;;18.40;10.23;;;;;;;7.60;91.24;100527.09;5211146;28;20483;-77
2022/04/13 04:53:23;;;;;;;21.30;11.35;;;;;;;7.64;91.83;100518.31;5215044;28;20474;-77
2022/04/13 04:55:53;;;;;;;19.70;11.25;;;;;;;7.66;91.90;100520.91;5211647;28;20106;-77
2022/04/13 04:58:25;;;;;;;19.17;10.95;;;;;;;7.50;93.16;100527.34;5215551;28;20028;-77
2022/04/13 05:00:55;;;;;;;21.80;11.20;;;;;;;7.42;93.65;100531.88;5205223;28;20033;-78
2022/04/13 05:03:26;;;;;;;20.98;11.18;;;;;;;7.14;97.27;100541.19;5212694;28;20490;-77
2022/04/13 05:05:56;;;;;;;22.25;11.68;;;;;;;7.33;96.83;100538.13;5212803;28;20437;-77
2022/04/13 05:08:26;;;;;;;20.85;11.32;;;;;;;7.45;94.78;100543.06;5212062;28;20036;-78
2022/04/13 05:10:56;;;;;;;21.17;11.70;;;;;;;7.28;97.16;100546.09;5210949;28;20033;-78
2022/04/13 05:13:27;;;;;;;22.10;12.57;;;;;;;7.29;96.64;100551.22;5206035;28;20025;-78
2022/04/13 05:15:57;;;;;;;21.20;12.32;;;;;;;7.28;97.96;100553.88;5208689;28;20029;-78
2022/04/13 05:18:27;;;;;;;20.60;12.02;;;;;;;7.41;96.33;100546.63;5213551;28;20111;-78
2022/04/13 05:20:58;;;;;;;20.88;12.20;;;;;;;7.54;95.49;100558.44;5212760;28;20036;-78
2022/04/13 05:23:28;;;;;;;21.50;12.38;;;;;;;7.53;96.32;100561.09;5210387;28;20025;-78
2022/04/13 05:25:58;;;;;;;20.02;12.02;;;;;;;7.67;95.02;100559.84;5212333;28;20028;-78
2022/04/13 05:28:29;;;;;;;22.55;11.45;;;;;;;7.95;93.62;100550.47;5215144;28;20133;-78
2022/04/13 05:30:59;;;;;;;19.25;10.98;;;;;;;8.23;92.76;100553.25;5213656;28;20032;-78
2022/04/13 05:33:29;;;;;;;21.13;11.60;;;;;;;8.25;92.91;100554.06;5213736;28;20490;-78
2022/04/13 05:36:00;;;;;;;20.30;10.95;;;;;;;8.04;94.43;100560.63;5214045;28;20540;-78
2022/04/13 05:38:30;;;;;;;23.02;11.90;;;;;;;8.49;93.14;100564.69;5213260;28;20060;-78
2022/04/13 05:41:00;;;;;;;21.05;11.48;;;;;;;8.43;91.92;100557.03;5213156;28;20033;-78
2022/04/13 05:43:33;;;;;;;22.90;11.80;;;;;;;8.48;92.60;100557.75;5205065;28;20029;-78
2022/04/13 05:46:03;;;;;;;23.17;12.20;;;;;;;8.88;90.88;100563.56;5207575;28;20056;-78
2022/04/13 05:48:33;;;;;;;20.40;11.32;;;;;;;8.90;91.31;100555.69;5209650;28;20034;-78
2022/04/13 05:51:04;;;;;;;22.67;11.57;;;;;;;8.85;91.33;100566.25;5190447;28;20335;-78
2022/04/13 05:53:34;;;;;;;24.30;12.32;;;;;;;8.86;91.82;100565.34;5191340;28;20040;-78
2022/04/13 05:56:05;;;;;;;20.98;11.57;;;;;;;9.02;90.71;100569.22;5211074;28;20378;-78
2022/04/13 05:58:35;;;;;;;22.33;12.00;;;;;;;8.94;91.14;100573.81;5216874;28;20140;-78
2022/04/13 06:01:06;;;;;;;19.70;11.40;;;;;;;9.16;89.19;100569.66;5215358;28;20024;-78
2022/04/13 06:03:36;;;;;;;21.25;11.60;;;;;;;9.27;88.70;100570.19;5214828;28;20519;-78
2022/04/13 06:06:06;;;;;;;21.60;11.83;;;;;;;9.25;89.01;100579.81;5215176;28;20378;-78
2022/04/13 06:08:36;;;;;;;20.30;12.25;;;;;;;9.64;88.62;100571.59;5216795;28;20634;-78
2022/04/13 06:11:07;;;;;;;17.63;10.82;;;;;;;9.58;88.09;100586.59;5215851;28;20029;-78
2022/04/13 06:13:37;;;;;;;20.90;11.35;;;;;;;9.50;88.45;100586.00;5208465;28;20155;-78
2022/04/13 06:16:08;;;;;;;22.05;12.02;;;;;;;9.54;87.63;100582.38;5212423;28;20388;-78
2022/04/13 06:18:38;;;;;;;22.42;12.25;;;;;;;9.63;87.35;100587.34;5216057;28;20068;-78
2022/04/13 06:21:09;;;;;;;19.48;12.23;;;;;;;9.69;88.02;100581.91;5216312;28;20103;-78
2022/04/13 06:23:39;;;;;;;23.48;12.57;;;;;;;10.00;86.79;100582.63;5215520;28;20026;-78
2022/04/13 06:26:10;;;;;;;21.65;12.32;;;;;;;10.01;88.00;100579.09;5216386;28;20444;-78
2022/04/13 06:28:40;;;;;;;20.55;12.27;;;;;;;10.15;86.80;100593.44;5218226;28;20041;-78
2022/04/13 06:31:10;;;;;;;25.25;12.35;;;;;;;10.32;87.31;100592.88;5214672;28;20104;-78
2022/04/13 06:33:41;;;;;;;20.27;11.80;;;;;;;10.23;87.43;100598.41;5217025;28;20039;-78
2022/04/13 06:36:11;;;;;;;18.80;11.43;;;;;;;10.33;88.66;100603.25;5214598;28;20021;-79
2022/04/13 06:38:42;;;;;;;20.42;11.57;;;;;;;10.44;87.56;100605.50;5216904;28;20029;-79
2022/04/13 06:41:13;;;;;;;21.30;11.65;;;;;;;10.93;85.12;100603.72;5214285;28;20264;-79
2022/04/13 06:43:43;;;;;;;20.63;11.23;;;;;;;11.57;82.14;100596.03;5208013;28;20025;-79
2022/04/13 06:46:13;;;;;;;21.85;11.90;;;;;;;12.66;79.19;100587.91;5213090;28;20013;-79
2022/04/13 06:48:43;;;;;;;17.77;11.02;;;;;;;13.31;75.70;100599.81;5214107;28;20043;-79
2022/04/13 06:51:14;;;;;;;16.10;10.57;;;;;;;13.66;74.42;100603.38;5212426;28;20562;-79
2022/04/13 06:53:44;;;;;;;17.75;10.77;;;;;;;14.59;70.82;100598.75;5216199;28;20632;-79
2022/04/13 06:56:14;;;;;;;15.93;10.10;;;;;;;14.97;68.27;100603.69;5213062;28;20022;-79
2022/04/13 06:58:46;;;;;;;17.43;10.20;;;;;;;15.63;66.77;100605.34;5217684;28;20282;-79
2022/04/13 07:01:17;;;;;;;17.95;10.20;;;;;;;15.53;67.90;100607.63;5212688;28;20280;-79
2022/04/13 07:03:47;;;;;;;14.98;9.70;;;;;;;16.84;63.96;100606.09;5216581;28;20083;-80
2022/04/13 07:06:17;;;;;;;16.80;9.87;;;;;;;17.76;63.67;100604.63;5212546;28;20055;-80
2022/04/13 07:08:48;;;;;;;15.50;9.70;;;;;;;17.70;61.23;100605.03;5215719;28;20334;-80
2022/04/13 07:11:18;;;;;;;14.83;9.73;;;;;;;16.00;64.54;100613.72;5195021;28;20039;-80
2022/04/13 07:13:48;;;;;;;15.07;9.57;;;;;;;17.00;64.02;100606.84;5206624;28;20362;-80
2022/04/13 07:16:18;;;;;;;13.50;9.33;;;;;;;17.17;62.93;100612.78;5212614;28;20017;-80
2022/04/13 07:18:49;;;;;;;13.93;9.52;;;;;;;17.11;62.95;100614.97;5209139;28;20402;-80
2022/04/13 07:21:19;;;;;;;13.68;9.63;;;;;;;17.49;63.60;100616.94;5216589;28;20033;-80
2022/04/13 07:23:49;;;;;;;15.82;10.13;;;;;;;17.60;61.51;100618.91;5212848;28;20417;-80
2022/04/13 07:26:20;;;;;;;16.88;10.38;;;;;;;18.58;60.63;100610.59;5214209;28;20020;-80
2022/04/13 07:28:52;;;;;;;15.40;10.07;;;;;;;18.34;61.53;100623.69;5211220;28;20033;-77
2022/04/13 07:31:22;;;;;;;14.40;9.63;;;;;;;17.82;62.59;100621.88;5211223;28;20030;-77
2022/04/13 07:33:53;;;;;;;14.73;9.47;;;;;;;17.95;61.86;100630.69;5214976;28;20610;-78
2022/04/13 07:36:23;;;;;;;15.95;10.68;;;;;;;17.38;63.35;100624.72;5211575;28;20683;-77
2022/04/13 07:38:53;;;;;;;19.33;9.82;;;;;;;17.64;63.24;100626.53;5214194;28;20036;-77
2022/04/13 07:41:24;;;;;;;13.98;9.25;;;;;;;17.25;65.11;100630.78;5211065;28;20387;-77
2022/04/13 07:43:55;;;;;;;13.52;9.43;;;;;;;16.55;65.90;100629.88;5204789;28;20025;-77
2022/04/13 07:46:27;;;;;;;15.73;9.82;;;;;;;16.33;68.02;100630.25;5211059;28;20107;-77
2022/04/13 07:48:57;;;;;;;16.58;10.20;;;;;;;16.32;67.92;100636.47;5211962;28;20045;-77
2022/04/13 07:51:27;;;;;;;14.10;9.30;;;;;;;16.18;66.88;100630.28;5213543;28;20025;-77
2022/04/13 07:54:00;;;;;;;13.60;10.13;;;;;;;16.56;66.89;100627.13;5212294;28;20108;-77
2022/04/13 07:56:30;;;;;;;15.10;9.20;;;;;;;16.67;66.84;100632.63;5213414;28;20279;-76
2022/04/13 07:59:03;;;;;;;16.30;10.02;;;;;;;16.77;66.05;100629.34;5201693;28;20044;-77
2022/04/13 08:01:33;;;;;;;15.73;10.07;;;;;;;17.69;63.96;100626.25;5209807;28;20032;-77
2022/04/13 08:04:03;;;;;;;15.27;9.38;;;;;;;18.59;61.37;100625.53;5212819;28;20037;-77
2022/04/13 08:06:34;;;;;;;16.63;9.82;;;;;;;18.80;60.99;100622.28;5212126;28;20383;-77
2022/04/13 08:09:04;;;;;;;19.40;10.30;;;;;;;18.79;61.09;100620.59;5212360;28;20087;-77
2022/04/13 08:11:34;;;;;;;15.90;10.70;;;;;;;19.75;60.55;100619.03;5212112;28;20027;-77
2022/04/13 08:14:05;;;;;;;14.43;10.32;;;;;;;18.73;62.32;100616.56;5202086;28;20033;-77
2022/04/13 08:16:35;;;;;;;15.20;9.85;;;;;;;18.53;63.39;100625.97;5210424;28;20033;-77
2022/04/13 08:19:06;;;;;;;14.77;10.43;;;;;;;18.27;64.35;100626.81;5211734;28;20033;-77
2022/04/13 08:21:38;;;;;;;15.67;9.87;;;;;;;19.48;64.61;100619.19;5211619;28;20112;-77
2022/04/13 08:24:09;;;;;;;15.38;10.15;;;;;;;19.41;62.33;100620.59;5213047;28;20275;-77
2022/04/13 08:26:39;;;;;;;14.35;9.88;;;;;;;19.84;62.13;100624.53;5211198;28;20033;-77
2022/04/13 08:29:10;;;;;;;13.65;9.95;;;;;;;19.27;62.39;100625.19;5201130;28;20026;-77
2022/04/13 08:31:40;;;;;;;14.35;10.32;;;;;;;19.60;60.86;100626.28;5209466;28;20049;-77
2022/04/13 08:34:10;;;;;;;13.13;9.93;;;;;;;19.50;61.59;100633.22;5212966;28;20028;-77
2022/04/13 08:36:41;;;;;;;16.20;10.87;;;;;;;19.41;62.49;100631.19;5210702;28;20169;-77
2022/04/13 08:39:14;;;;;;;14.75;10.15;;;;;;;20.18;63.11;100623.78;5212690;28;20278;-77
2022/04/13 08:41:50;;;;;;;17.48;10.40;;;;;;;20.26;61.36;100628.53;5208999;28;20399;-77
2022/04/13 08:44:50;;;;;;;12.85;9.13;;;;;;;20.76;59.40;100627.22;5200090;28;20029;-77
2022/04/13 08:47:22;;;;;;;15.25;10.05;;;;;;;21.56;58.14;100639.56;5213309;28;20029;-78
2022/04/13 08:49:53;;;;;;;15.52;9.98;;;;;;;22.08;57.03;100637.06;5210440;28;20033;-77
2022/04/13 08:52:28;;;;;;;13.63;10.20;;;;;;;22.09;56.85;100634.25;5213007;28;20082;-77
2022/04/13 08:55:11;;;;;;;16.20;9.93;;;;;;;23.34;54.49;100633.25;5192580;28;20027;-78
2022/04/13 08:57:58;;;;;;;14.13;9.52;;;;;;;23.21;55.39;100634.47;5205732;28;20083;-77
2022/04/13 09:00:33;;;;;;;13.32;9.57;;;;;;;22.69;56.89;100634.53;5187167;28;20052;-78
2022/04/13 09:03:21;;;;;;;12.90;9.60;;;;;;;23.50;54.66;100638.13;5211724;28;20614;-77
2022/04/13 09:05:55;;;;;;;12.88;9.23;;;;;;;22.62;55.54;100645.84;5206338;28;20503;-78
2022/04/13 09:08:42;;;;;;;12.93;9.43;;;;;;;22.22;56.21;100644.78;5211989;28;20079;-78
2022/04/13 09:11:13;;;;;;;13.63;9.13;;;;;;;22.76;55.59;100633.91;5240310;22;20033;-80
2022/04/13 09:13:46;;;;;;;12.98;9.15;;;;;;;22.12;56.60;100638.50;5208276;28;20026;-80
2022/04/13 09:16:17;;;;;;;12.75;9.20;;;;;;;22.92;55.46;100636.94;5213538;28;20552;-80
2022/04/13 09:18:48;;;;;;;15.02;8.98;;;;;;;22.46;55.73;100646.25;5198589;28;20078;-79
2022/04/13 09:21:18;;;;;;;13.60;9.20;;;;;;;23.52;55.19;100637.00;5203185;28;20029;-80
2022/04/13 09:23:48;;;;;;;11.45;8.23;;;;;;;23.64;54.16;100645.72;5186720;28;20429;-80
2022/04/13 09:26:20;;;;;;;10.17;7.47;;;;;;;24.59;53.26;100645.97;5186160;28;20343;-80
2022/04/13 09:28:50;;;;;;;10.35;8.25;;;;;;;23.06;53.68;100644.59;5175375;28;20029;-80
2022/04/13 09:31:21;;;;;;;10.73;8.18;;;;;;;22.22;56.16;100653.59;5193771;28;20039;-80
2022/04/13 09:33:51;;;;;;;12.55;7.93;;;;;;;22.31;56.74;100649.31;5187638;28;20072;-80
2022/04/13 09:36:21;;;;;;;10.45;7.78;;;;;;;21.40;57.55;100645.22;5174501;28;20030;-80
2022/04/13 09:38:54;;;;;;;12.98;7.63;;;;;;;21.34;59.04;100652.81;5183141;28;20018;-80
2022/04/13 09:41:36;;;;;;;9.27;7.03;;;;;;;21.60;57.97;100641.00;5183617;28;20446;-80
2022/04/13 09:44:18;;;;;;;11.57;7.32;;;;;;;21.30;58.08;100648.72;5191985;28;20029;-80
2022/04/13 09:46:48;;;;;;;11.32;7.82;;;;;;;21.20;59.30;100648.59;5183041;28;20108;-80
2022/04/13 09:49:22;;;;;;;12.00;9.07;;;;;;;21.55;58.18;100643.19;5193223;28;20057;-80
2022/04/13 09:51:52;;;;;;;12.95;9.00;;;;;;;20.97;60.61;100651.34;5209870;28;20333;-79
2022/04/13 09:54:24;;;;;;;15.35;8.98;;;;;;;21.54;59.21;100652.13;5209975;28;20025;-79
2022/04/13 09:56:54;;;;;;;13.90;8.65;;;;;;;21.83;60.36;100646.19;5190254;28;20075;-79
2022/04/13 09:59:31;;;;;;;12.77;9.30;;;;;;;21.84;61.40;100655.88;5182474;28;20041;-79
2022/04/13 10:02:01;;;;;;;13.90;9.20;;;;;;;21.64;59.76;100658.44;5207715;28;20280;-80
2022/04/13 10:04:32;;;;;;;13.98;8.63;;;;;;;21.63;59.95;100667.38;5205054;28;20036;-80
2022/04/13 10:07:17;;;;;;;13.05;8.23;;;;;;;21.59;59.14;100655.25;5204610;28;20042;-80
2022/04/13 10:09:48;;;;;;;12.73;8.05;;;;;;;21.46;59.34;100659.84;5204354;28;20556;-80
2022/04/13 10:12:18;;;;;;;9.73;6.27;;;;;;;21.70;54.10;100657.94;5200271;28;20108;-80
2022/04/13 10:14:48;;;;;;;10.52;6.45;;;;;;;22.14;53.63;100652.53;5197745;28;20276;-80
2022/04/13 10:17:20;;;;;;;11.95;6.38;;;;;;;21.87;54.92;100647.63;5186849;28;20065;-80
2022/04/13 10:19:58;;;;;;;12.15;7.30;;;;;;;21.82;55.26;100649.81;5196076;28;20025;-80
2022/04/13 10:22:29;;;;;;;12.48;7.20;;;;;;;21.59;53.62;100649.94;5186408;28;20018;-80
2022/04/13 10:25:25;;;;;;;14.55;7.43;;;;;;;21.33;55.83;100649.34;5186961;28;20096;-80
2022/04/13 10:27:59;;;;;;;12.10;6.63;;;;;;;21.82;55.07;100646.31;5191304;28;20388;-80
2022/04/13 10:30:32;;;;;;;12.43;6.93;;;;;;;21.68;54.64;100650.09;5182385;28;20038;-80
2022/04/13 10:33:10;;;;;;;12.50;7.30;;;;;;;21.25;54.04;100648.25;5203969;28;20526;-80
2022/04/13 10:35:45;;;;;;;10.38;6.55;;;;;;;21.85;56.89;100646.91;5204835;28;20637;-80
2022/04/13 10:38:15;;;;;;;8.98;5.63;;;;;;;22.33;54.70;100647.38;5185720;28;20081;-80
2022/04/13 10:40:47;;;;;;;9.17;5.73;;;;;;;21.75;52.75;100645.13;5203745;28;20460;-80
2022/04/13 10:43:21;;;;;;;9.85;5.43;;;;;;;21.53;54.30;100651.28;5199004;28;20776;-80
2022/04/13 10:45:52;;;;;;;11.60;5.40;;;;;;;22.01;54.68;100650.03;5179771;28;20025;-80
2022/04/13 10:48:29;;;;;;;10.35;5.32;;;;;;;21.50;53.90;100640.00;5189331;28;20025;-80
2022/04/13 10:51:08;;;;;;;10.23;5.13;;;;;;;21.73;53.13;100642.56;5190513;28;20501;-80
2022/04/13 10:53:52;;;;;;;9.65;5.00;;;;;;;21.90;53.73;100642.06;5206838;28;20037;-80
2022/04/13 10:56:27;;;;;;;9.52;5.43;;;;;;;21.67;52.58;100631.56;5181823;28;20418;-80
2022/04/13 10:59:01;;;;;;;10.32;5.32;;;;;;;22.02;53.89;100634.88;5198710;28;20032;-80
2022/04/13 11:01:41;;;;;;;12.18;5.47;;;;;;;21.93;54.34;100635.66;5202377;28;20025;-80
2022/04/13 11:04:12;;;;;;;9.30;5.22;;;;;;;21.84;53.96;100633.72;5189902;28;20031;-80
2022/04/13 11:06:45;;;;;;;10.45;5.38;;;;;;;21.98;54.90;100636.97;5189490;28;20053;-80
2022/04/13 11:09:38;;;;;;;10.90;5.40;;;;;;;21.79;56.75;100641.22;5206966;28;20511;-80
2022/04/13 11:12:09;;;;;;;13.02;5.78;;;;;;;21.90;54.28;100638.56;5201192;28;20040;-80
2022/04/13 11:14:51;;;;;;;10.70;5.30;;;;;;;21.64;56.43;100637.13;5199367;28;20064;-80
2022/04/13 11:17:23;;;;;;;11.20;6.20;;;;;;;21.43;54.84;100644.13;5199191;28;20017;-80
2022/04/13 11:20:19;;;;;;;9.18;5.32;;;;;;;21.77;55.83;100640.50;5207118;28;20447;-80
2022/04/13 11:23:13;;;;;;;13.82;5.88;;;;;;;21.66;54.67;100638.72;5198590;28;20032;-80
2022/04/13 11:25:53;;;;;;;10.45;6.15;;;;;;;21.53;56.20;100645.94;5207536;28;20033;-80
2022/04/13 11:28:25;;;;;;;13.45;6.38;;;;;;;21.18;54.87;100644.34;5191698;28;20030;-80
2022/04/13 11:31:07;;;;;;;12.45;6.38;;;;;;;21.16;57.31;100648.94;5202168;28;20032;-80
2022/04/13 11:33:51;;;;;;;12.07;6.47;;;;;;;21.04;56.31;100645.44;5189330;28;20092;-80
2022/04/13 11:36:27;;;;;;;10.85;5.65;;;;;;;21.24;55.52;100644.72;5181347;28;20021;-80
2022/04/13 11:38:57;;;;;;;;;;;;;;;21.16;54.64;100654.25;5206870;28;20034;-80
2022/04/13 11:41:27;;;;;;;9.87;5.90;;;;;;;21.36;56.51;100653.56;5206349;28;19917;-80